createdAt,value
2023-04-04T00:00:53.367Z,11.93
2023-04-04T00:03:20.792Z,12.98
2023-04-04T00:05:48.173Z,12.50
2023-04-04T00:08:15.947Z,11.82
2023-04-04T00:10:45.873Z,10.45
2023-04-04T00:13:13.516Z,12.35
2023-04-04T00:15:41.044Z,12.38
2023-04-04T00:18:08.578Z,13.38
2023-04-04T00:20:37.737Z,11.05
2023-04-04T00:23:05.107Z,13.50
2023-04-04T00:25:32.441Z,10.63
2023-04-04T00:28:01.331Z,11.30
2023-04-04T00:30:30.232Z,12.45
2023-04-04T00:32:58.586Z,11.15
2023-04-04T00:35:27.148Z,11.90
2023-04-04T00:37:56.652Z,14.35
2023-04-04T00:40:24.993Z,12.82
2023-04-04T00:42:53.695Z,12.20
2023-04-04T00:45:23.277Z,13.23
2023-04-04T00:47:52.656Z,11.88
2023-04-04T00:50:22.098Z,10.82
2023-04-04T00:52:50.634Z,10.18
2023-04-04T00:55:18.168Z,13.07
2023-04-04T00:57:46.065Z,13.15
2023-04-04T01:02:48.930Z,9.65
2023-04-04T01:05:16.369Z,11.45
2023-04-04T01:07:44.811Z,10.60
2023-04-04T01:10:12.921Z,12.63
2023-04-04T01:12:42.696Z,9.45
2023-04-04T01:15:10.589Z,12.82
2023-04-04T01:17:38.303Z,12.25
2023-04-04T01:20:11.875Z,10.88
2023-04-04T01:22:40.818Z,13.25
2023-04-04T01:25:11.948Z,11.80
2023-04-04T01:27:39.573Z,13.30
2023-04-04T01:30:08.402Z,10.85
2023-04-04T01:32:46.420Z,12.57
2023-04-04T01:35:17.129Z,11.82
2023-04-04T01:38:19.228Z,12.63
2023-04-04T01:40:49.994Z,11.38
2023-04-04T01:43:23.892Z,10.95
2023-04-04T01:45:51.530Z,9.82
2023-04-04T01:48:24.914Z,11.45
2023-04-04T01:50:54.518Z,12.80
2023-04-04T01:53:22.346Z,11.85
2023-04-04T01:55:50.223Z,11.68
2023-04-04T01:58:17.829Z,10.85
2023-04-04T02:00:45.180Z,12.52
2023-04-04T02:03:18.404Z,14.02
2023-04-04T02:08:15.538Z,11.23
2023-04-04T02:10:42.811Z,10.20
2023-04-04T02:13:11.486Z,12.13
2023-04-04T02:15:38.772Z,11.40
2023-04-04T02:18:08.360Z,10.82
2023-04-04T02:20:38.186Z,10.93
2023-04-04T02:23:05.795Z,10.73
2023-04-04T02:25:33.056Z,12.50
2023-04-04T02:28:01.690Z,11.95
2023-04-04T02:30:29.021Z,12.80
2023-04-04T02:33:00.140Z,14.70
2023-04-04T02:35:27.729Z,11.65
2023-04-04T02:37:55.067Z,11.45
2023-04-04T02:40:22.535Z,15.30
2023-04-04T02:42:49.984Z,12.35
2023-04-04T02:45:17.950Z,14.18
2023-04-04T02:47:51.086Z,13.40
2023-04-04T02:50:19.751Z,11.45
2023-04-04T02:52:55.276Z,14.25
2023-04-04T02:55:22.565Z,13.60
2023-04-04T02:57:54.234Z,19.52
2023-04-04T03:00:22.032Z,16.15
2023-04-04T03:02:56.251Z,15.48
2023-04-04T03:05:27.910Z,12.82
2023-04-04T03:07:59.153Z,14.63
2023-04-04T03:10:32.009Z,13.25
2023-04-04T03:13:01.344Z,16.30
2023-04-04T03:15:30.752Z,14.48
2023-04-04T03:17:59.343Z,16.30
2023-04-04T03:20:27.439Z,14.20
2023-04-04T03:22:54.815Z,15.90
2023-04-04T03:25:22.312Z,16.67
2023-04-04T03:27:50.729Z,17.58
2023-04-04T03:30:18.294Z,14.48
2023-04-04T03:32:46.636Z,15.80
2023-04-04T03:35:15.154Z,15.55
2023-04-04T03:37:43.156Z,15.60
2023-04-04T03:40:13.000Z,17.90
2023-04-04T03:42:40.649Z,18.73
2023-04-04T03:45:08.792Z,17.23
2023-04-04T03:47:35.937Z,16.77
2023-04-04T03:50:03.672Z,17.63
2023-04-04T03:52:32.215Z,17.25
2023-04-04T03:55:01.437Z,17.23
2023-04-04T03:57:28.905Z,15.80
2023-04-04T03:59:56.504Z,20.02
2023-04-04T04:02:23.622Z,18.98
2023-04-04T04:04:51.515Z,15.85
2023-04-04T04:07:18.671Z,14.65
2023-04-04T04:09:46.991Z,17.10
2023-04-04T04:12:16.147Z,17.52
2023-04-04T04:14:43.689Z,16.30
2023-04-04T04:17:12.115Z,19.08
2023-04-04T04:19:39.659Z,17.75
2023-04-04T04:22:07.028Z,18.35
2023-04-04T04:24:34.453Z,19.10
2023-04-04T04:27:01.917Z,16.20
2023-04-04T04:29:30.139Z,17.92
2023-04-04T04:31:58.493Z,17.48
2023-04-04T04:34:33.067Z,20.90
2023-04-04T04:37:01.513Z,17.00
2023-04-04T04:39:30.024Z,16.40
2023-04-04T04:41:57.703Z,14.65
2023-04-04T04:44:31.190Z,16.80
2023-04-04T04:46:58.563Z,16.67
2023-04-04T04:49:27.750Z,14.95
2023-04-04T04:51:54.947Z,14.95
2023-04-04T04:54:28.354Z,16.27
2023-04-04T04:56:55.698Z,18.55
2023-04-04T04:59:23.101Z,16.30
2023-04-04T05:01:50.346Z,15.60
2023-04-04T05:04:17.922Z,16.98
2023-04-04T05:06:45.448Z,17.05
2023-04-04T05:09:12.875Z,18.63
2023-04-04T05:11:40.389Z,17.88
2023-04-04T05:14:07.858Z,16.13
2023-04-04T05:16:36.308Z,15.40
2023-04-04T05:19:04.827Z,16.33
2023-04-04T05:21:32.163Z,14.68
2023-04-04T05:24:00.271Z,14.57
2023-04-04T05:26:29.933Z,15.20
2023-04-04T05:28:59.525Z,15.68
2023-04-04T05:31:26.880Z,18.63
2023-04-04T05:33:54.241Z,15.35
2023-04-04T05:36:21.732Z,14.93
2023-04-04T05:38:50.262Z,16.08
2023-04-04T05:41:19.598Z,14.52
2023-04-04T05:43:47.103Z,14.65
2023-04-04T05:46:14.651Z,16.10
2023-04-04T05:48:42.021Z,14.75
2023-04-04T05:51:11.163Z,15.75
2023-04-04T05:53:39.021Z,15.75
2023-04-04T05:56:25.387Z,16.52
2023-04-04T05:58:53.485Z,17.85
2023-04-04T06:01:20.912Z,15.40
2023-04-04T06:03:48.434Z,13.90
2023-04-04T06:06:16.192Z,16.15
2023-04-04T06:11:17.817Z,16.00
2023-04-04T06:13:45.191Z,14.38
2023-04-04T06:16:12.870Z,12.23
2023-04-04T06:18:40.246Z,14.05
2023-04-04T06:21:07.695Z,16.73
2023-04-04T06:23:37.992Z,11.55
2023-04-04T06:26:07.029Z,10.82
2023-04-04T06:28:34.469Z,59.95
2023-04-04T06:31:02.286Z,33.65
2023-04-04T06:33:29.480Z,80.47
2023-04-04T06:35:56.992Z,51.72
2023-04-04T06:38:25.110Z,153.45
2023-04-04T06:40:52.426Z,44.67
2023-04-04T06:43:19.996Z,45.72
2023-04-04T06:45:47.434Z,48.17
2023-04-04T06:48:14.841Z,83.43
2023-04-04T06:50:42.320Z,106.50
2023-04-04T06:53:09.867Z,17.70
2023-04-04T06:55:37.322Z,7.32
2023-04-04T06:58:04.620Z,8.40
2023-04-04T07:00:32.136Z,7.55
2023-04-04T07:03:00.600Z,17.40
2023-04-04T07:05:28.419Z,14.98
2023-04-04T07:07:57.296Z,10.82
2023-04-04T07:10:25.847Z,8.52
2023-04-04T07:12:53.023Z,12.40
2023-04-04T07:15:20.497Z,6.45
2023-04-04T07:17:48.051Z,10.25
2023-04-04T07:20:15.477Z,5.38
2023-04-04T07:22:44.850Z,5.78
2023-04-04T07:25:13.633Z,4.93
2023-04-04T07:27:42.853Z,8.27
2023-04-04T07:30:10.864Z,20.40
2023-04-04T07:32:38.478Z,15.18
2023-04-04T07:35:07.320Z,6.40
2023-04-04T07:37:37.479Z,11.95
2023-04-04T07:40:07.984Z,14.70
2023-04-04T07:42:45.694Z,53.95
2023-04-04T07:45:13.633Z,17.23
2023-04-04T07:47:45.547Z,5.50
2023-04-04T07:50:19.267Z,7.38
2023-04-04T07:52:52.514Z,7.82
2023-04-04T07:55:20.629Z,5.75
2023-04-04T07:57:50.177Z,6.97
2023-04-04T08:00:22.212Z,4.50
2023-04-04T08:02:54.198Z,12.80
2023-04-04T08:05:22.088Z,12.52
2023-04-04T08:07:49.344Z,7.95
2023-04-04T08:10:19.467Z,8.02
2023-04-04T08:12:46.622Z,5.90
2023-04-04T08:15:14.281Z,6.72
2023-04-04T08:17:43.516Z,5.15
2023-04-04T08:20:17.252Z,10.70
2023-04-04T08:22:45.785Z,10.73
2023-04-04T08:25:18.835Z,10.02
2023-04-04T08:27:46.830Z,11.52
2023-04-04T08:30:15.805Z,10.18
2023-04-04T08:32:46.142Z,7.93
2023-04-04T08:35:13.605Z,7.75
2023-04-04T08:37:47.598Z,13.40
2023-04-04T08:40:15.245Z,6.15
2023-04-04T08:42:46.413Z,6.35
2023-04-04T08:45:18.818Z,6.78
2023-04-04T08:47:49.602Z,9.27
2023-04-04T08:50:19.565Z,9.60
2023-04-04T08:53:01.920Z,9.00
2023-04-04T08:55:29.263Z,8.93
2023-04-04T08:57:57.373Z,9.30
2023-04-04T09:00:25.548Z,9.27
2023-04-04T09:03:14.100Z,6.78
2023-04-04T09:05:43.781Z,11.27
2023-04-04T09:08:13.174Z,6.00
2023-04-04T09:10:44.425Z,6.43
2023-04-04T09:13:16.035Z,10.38
2023-04-04T09:15:48.535Z,6.55
2023-04-04T09:18:16.671Z,6.25
2023-04-04T09:20:45.175Z,8.00
2023-04-04T09:23:17.891Z,9.25
2023-04-04T09:26:03.098Z,9.82
2023-04-04T09:28:33.005Z,5.22
2023-04-04T09:31:07.772Z,8.88
2023-04-04T09:33:35.259Z,10.25
2023-04-04T09:36:13.192Z,8.75
2023-04-04T09:38:49.656Z,7.53
2023-04-04T09:41:19.168Z,7.80
2023-04-04T09:43:47.780Z,12.60
2023-04-04T09:46:19.785Z,17.55
2023-04-04T09:48:55.851Z,12.10
2023-04-04T09:51:23.438Z,10.27
2023-04-04T09:53:51.744Z,5.32
2023-04-04T09:56:19.673Z,6.65
2023-04-04T09:59:03.056Z,10.77
2023-04-04T10:01:30.884Z,6.60
2023-04-04T10:03:59.556Z,7.10
2023-04-04T10:06:27.483Z,8.80
2023-04-04T10:08:54.737Z,8.60
2023-04-04T10:11:33.857Z,5.50
2023-04-04T10:14:04.230Z,5.60
2023-04-04T10:16:37.377Z,6.70
2023-04-04T10:19:09.030Z,5.35
2023-04-04T10:21:36.978Z,6.78
2023-04-04T10:24:10.300Z,6.05
2023-04-04T10:29:06.255Z,6.13
2023-04-04T10:31:35.420Z,6.05
2023-04-04T10:34:31.529Z,7.03
2023-04-04T10:37:27.416Z,5.68
2023-04-04T10:40:19.894Z,7.75
2023-04-04T10:42:51.292Z,6.00
2023-04-04T10:45:21.472Z,5.88
2023-04-04T10:47:49.730Z,5.72
2023-04-04T10:50:21.229Z,5.82
2023-04-04T10:52:48.958Z,5.90
2023-04-04T10:55:17.479Z,6.30
2023-04-04T10:57:52.996Z,8.20
2023-04-04T11:00:23.731Z,5.90
2023-04-04T11:03:02.379Z,6.25
2023-04-04T11:05:37.798Z,5.78
2023-04-04T11:08:10.866Z,7.30
2023-04-04T11:10:43.497Z,6.03
2023-04-04T11:13:25.247Z,6.07
2023-04-04T11:16:15.774Z,5.88
2023-04-04T11:18:45.847Z,6.35
2023-04-04T11:21:27.703Z,6.82
2023-04-04T11:23:54.915Z,7.93
2023-04-04T11:26:28.577Z,7.63
2023-04-04T11:29:04.459Z,8.30
2023-04-04T11:31:45.754Z,5.22
2023-04-04T11:34:15.036Z,5.47
2023-04-04T11:36:45.484Z,6.95
2023-04-04T11:39:30.632Z,6.55
2023-04-04T11:42:10.668Z,5.00
2023-04-04T11:44:43.290Z,5.55
2023-04-04T11:47:13.035Z,5.17
2023-04-04T11:49:43.888Z,6.32
2023-04-04T11:52:13.436Z,7.43
2023-04-04T11:54:42.719Z,6.22
2023-04-04T11:57:18.404Z,5.65
2023-04-04T11:59:48.925Z,6.28
2023-04-04T12:02:32.376Z,7.13
2023-04-04T12:05:00.410Z,7.20
2023-04-04T12:07:32.088Z,9.05
2023-04-04T12:09:59.708Z,6.47
2023-04-04T12:12:29.120Z,7.45
2023-04-04T12:15:10.342Z,6.40
2023-04-04T12:17:43.735Z,7.07
2023-04-04T12:20:11.779Z,7.65
2023-04-04T12:22:40.059Z,6.15
2023-04-04T12:25:08.078Z,6.72
2023-04-04T12:27:36.994Z,6.68
2023-04-04T12:30:08.196Z,5.82
2023-04-04T12:32:36.707Z,10.50
2023-04-04T12:35:06.394Z,8.00
2023-04-04T12:37:34.726Z,9.50
2023-04-04T12:40:02.689Z,7.57
2023-04-04T12:42:32.395Z,6.93
2023-04-04T12:45:04.497Z,6.88
2023-04-04T12:47:32.479Z,6.15
2023-04-04T12:50:00.183Z,7.07
2023-04-04T12:52:33.040Z,8.70
2023-04-04T12:55:09.941Z,7.65
2023-04-04T12:57:40.300Z,6.68
2023-04-04T13:00:09.624Z,5.50
2023-04-04T13:02:38.240Z,7.43
2023-04-04T13:05:07.950Z,7.63
2023-04-04T13:07:47.628Z,7.55
2023-04-04T13:10:17.083Z,7.28
2023-04-04T13:12:58.997Z,8.52
2023-04-04T13:15:52.313Z,7.10
2023-04-04T13:18:23.950Z,8.07
2023-04-04T13:20:53.182Z,7.75
2023-04-04T13:23:23.532Z,7.63
2023-04-04T13:25:51.616Z,9.48
2023-04-04T13:28:19.216Z,7.72
2023-04-04T13:30:49.805Z,7.70
2023-04-04T13:33:18.624Z,5.88
2023-04-04T13:35:47.186Z,4.90
2023-04-04T13:38:17.204Z,6.90
2023-04-04T13:40:46.642Z,5.57
2023-04-04T13:43:15.527Z,6.72
2023-04-04T13:45:43.809Z,4.78
2023-04-04T13:48:11.779Z,5.00
2023-04-04T13:50:41.860Z,6.00
2023-04-04T13:53:10.799Z,5.38
2023-04-04T13:55:40.198Z,6.70
2023-04-04T13:58:11.772Z,6.07
2023-04-04T14:00:41.140Z,5.82
2023-04-04T14:03:08.696Z,6.78
2023-04-04T14:05:35.976Z,10.73
2023-04-04T14:08:03.502Z,5.78
2023-04-04T14:10:31.915Z,6.30
2023-04-04T14:13:00.818Z,6.65
2023-04-04T14:15:29.270Z,7.53
2023-04-04T14:17:56.583Z,6.53
2023-04-04T14:20:23.932Z,8.82
2023-04-04T14:22:57.943Z,6.00
2023-04-04T14:25:25.388Z,7.55
2023-04-04T14:27:52.825Z,17.73
2023-04-04T14:30:20.302Z,5.60
2023-04-04T14:32:51.393Z,8.23
2023-04-04T14:35:18.939Z,6.15
2023-04-04T14:37:49.463Z,6.32
2023-04-04T14:40:16.956Z,6.10
2023-04-04T14:42:50.875Z,8.40
2023-04-04T14:45:18.621Z,8.05
2023-04-04T14:47:46.269Z,6.03
2023-04-04T14:50:15.884Z,6.82
2023-04-04T14:52:43.298Z,9.80
2023-04-04T14:55:19.127Z,8.00
2023-04-04T15:00:21.309Z,7.35
2023-04-04T15:02:48.427Z,7.43
2023-04-04T15:05:17.389Z,8.20
2023-04-04T15:07:46.535Z,5.80
2023-04-04T15:10:14.434Z,8.02
2023-04-04T15:12:42.580Z,6.35
2023-04-04T15:15:13.586Z,9.32
2023-04-04T15:17:42.010Z,12.68
2023-04-04T15:20:11.258Z,6.68
2023-04-04T15:22:41.648Z,7.95
2023-04-04T15:25:09.979Z,7.68
2023-04-04T15:27:37.569Z,6.47
2023-04-04T15:30:08.477Z,56.10
2023-04-04T15:32:36.059Z,8.85
2023-04-04T15:35:04.738Z,28.40
2023-04-04T15:37:32.373Z,58.28
2023-04-04T15:39:59.787Z,31.00
2023-04-04T15:42:28.806Z,31.92
2023-04-04T15:44:56.258Z,18.00
2023-04-04T15:47:23.689Z,43.47
2023-04-04T15:49:51.322Z,23.30
2023-04-04T15:52:24.684Z,28.65
2023-04-04T15:54:52.674Z,10.60
2023-04-04T15:57:21.240Z,6.72
2023-04-04T15:59:49.109Z,11.75
2023-04-04T16:02:16.708Z,23.48
2023-04-04T16:04:44.102Z,61.85
2023-04-04T16:07:11.607Z,77.65
2023-04-04T16:09:41.286Z,54.50
2023-04-04T16:12:09.027Z,23.98
2023-04-04T16:14:37.568Z,9.13
2023-04-04T16:17:06.000Z,10.23
2023-04-04T16:19:34.369Z,10.05
2023-04-04T16:22:02.018Z,8.38
2023-04-04T16:24:29.365Z,9.00
2023-04-04T16:26:57.265Z,7.50
2023-04-04T16:29:24.859Z,6.72
2023-04-04T16:31:53.741Z,8.10
2023-04-04T16:34:21.260Z,8.38
2023-04-04T16:36:49.705Z,11.57
2023-04-04T16:39:17.356Z,11.25
2023-04-04T16:41:45.684Z,8.77
2023-04-04T16:44:13.576Z,9.88
2023-04-04T16:46:41.276Z,8.30
2023-04-04T16:49:14.910Z,6.10
2023-04-04T16:51:48.308Z,7.75
2023-04-04T16:54:15.878Z,8.48
2023-04-04T16:56:45.274Z,6.25
2023-04-04T16:59:16.148Z,8.32
2023-04-04T17:01:44.325Z,7.55
2023-04-04T17:04:12.154Z,7.45
2023-04-04T17:06:39.642Z,7.35
2023-04-04T17:09:08.623Z,9.25
2023-04-04T17:11:36.272Z,9.82
2023-04-04T17:14:04.562Z,11.15
2023-04-04T17:16:32.115Z,9.27
2023-04-04T17:18:59.488Z,10.23
2023-04-04T17:21:29.246Z,13.25
2023-04-04T17:23:56.608Z,9.68
2023-04-04T17:26:23.908Z,8.50
2023-04-04T17:28:51.630Z,11.88
2023-04-04T17:31:19.891Z,10.23
2023-04-04T17:33:47.416Z,8.98
2023-04-04T17:36:16.049Z,10.35
2023-04-04T17:38:43.818Z,10.70
2023-04-04T17:41:11.861Z,9.68
2023-04-04T17:43:39.662Z,13.15
2023-04-04T17:46:07.963Z,10.80
2023-04-04T17:48:37.351Z,12.02
2023-04-04T17:51:13.567Z,12.70
2023-04-04T17:53:42.713Z,12.55
2023-04-04T17:56:11.954Z,11.32
2023-04-04T17:58:41.098Z,21.77
2023-04-04T18:01:09.456Z,57.83
2023-04-04T18:03:39.257Z,240.48
2023-04-04T18:06:09.055Z,313.77
2023-04-04T18:08:36.719Z,109.18
2023-04-04T18:11:04.420Z,40.50
2023-04-04T18:13:32.836Z,43.85
2023-04-04T18:16:03.154Z,14.00
2023-04-04T18:18:31.104Z,18.23
2023-04-04T18:20:59.863Z,16.55
2023-04-04T18:23:28.550Z,14.45
2023-04-04T18:25:57.072Z,15.18
2023-04-04T18:28:25.223Z,16.80
2023-04-04T18:30:54.891Z,20.10
2023-04-04T18:33:22.548Z,18.02
2023-04-04T18:35:51.675Z,15.95
2023-04-04T18:38:25.588Z,19.65
2023-04-04T18:40:53.187Z,19.40
2023-04-04T18:43:20.855Z,23.38
2023-04-04T18:45:49.464Z,28.27
2023-04-04T18:48:18.123Z,29.15
2023-04-04T18:50:46.292Z,36.53
2023-04-04T18:53:19.772Z,23.50
2023-04-04T18:55:49.953Z,21.20
2023-04-04T18:58:18.255Z,22.67
2023-04-04T19:00:46.737Z,26.58
2023-04-04T19:03:15.833Z,26.30
2023-04-04T19:05:49.244Z,38.17
2023-04-04T19:10:50.485Z,32.42
2023-04-04T19:13:20.276Z,38.47
2023-04-04T19:15:47.853Z,18.17
2023-04-04T19:18:16.002Z,24.63
2023-04-04T19:20:50.290Z,20.75
2023-04-04T19:23:19.291Z,18.00
2023-04-04T19:25:47.399Z,16.67
2023-04-04T19:28:19.023Z,18.15
2023-04-04T19:30:50.696Z,22.77
2023-04-04T19:33:24.438Z,20.83
2023-04-04T19:35:59.339Z,25.33
2023-04-04T19:38:36.030Z,28.10
2023-04-04T19:41:09.891Z,34.47
2023-04-04T19:43:39.135Z,26.77
2023-04-04T19:46:11.196Z,22.05
2023-04-04T19:48:51.548Z,17.30
2023-04-04T19:51:18.624Z,17.40
2023-04-04T19:53:48.786Z,25.48
2023-04-04T19:56:20.104Z,29.00
2023-04-04T19:58:50.433Z,25.52
2023-04-04T20:01:23.321Z,22.08
2023-04-04T20:03:51.240Z,28.80
2023-04-04T20:06:35.052Z,18.40
2023-04-04T20:09:23.636Z,21.08
2023-04-04T20:11:52.611Z,21.90
2023-04-04T20:14:22.482Z,17.02
2023-04-04T20:16:52.550Z,19.23
2023-04-04T20:19:21.240Z,27.10
2023-04-04T20:21:50.816Z,18.25
2023-04-04T20:24:18.838Z,21.30
2023-04-04T20:26:51.911Z,23.13
2023-04-04T20:29:23.276Z,17.50
2023-04-04T20:31:55.558Z,13.73
2023-04-04T20:34:42.473Z,19.90
2023-04-04T20:37:16.372Z,18.83
2023-04-04T20:39:48.280Z,16.88
2023-04-04T20:42:51.038Z,19.75
2023-04-04T20:45:28.403Z,16.95
2023-04-04T20:48:00.828Z,12.48
2023-04-04T20:50:28.416Z,17.65
2023-04-04T20:53:02.433Z,14.65
2023-04-04T20:55:35.085Z,18.23
2023-04-04T20:58:20.225Z,24.00
2023-04-04T21:00:48.572Z,21.10
2023-04-04T21:03:37.951Z,17.67
2023-04-04T21:06:15.922Z,27.98
2023-04-04T21:08:50.189Z,21.23
2023-04-04T21:11:29.218Z,21.23
2023-04-04T21:13:57.675Z,19.38
2023-04-04T21:16:27.540Z,17.10
2023-04-04T21:19:01.056Z,21.05
2023-04-04T21:21:29.661Z,15.63
2023-04-04T21:24:00.214Z,14.32
2023-04-04T21:26:33.958Z,19.58
2023-04-04T21:29:21.708Z,20.10
2023-04-04T21:31:52.850Z,18.23
2023-04-04T21:34:26.282Z,15.32
2023-04-04T21:37:00.111Z,12.70
2023-04-04T21:39:29.998Z,17.90
2023-04-04T21:42:04.668Z,16.08
2023-04-04T21:44:35.563Z,14.20
2023-04-04T21:47:03.028Z,14.15
2023-04-04T21:49:31.803Z,15.85
2023-04-04T21:51:58.981Z,20.55
2023-04-04T21:54:26.475Z,18.60
2023-04-04T21:56:53.855Z,18.00
2023-04-04T21:59:21.399Z,23.27
2023-04-04T22:01:48.762Z,20.10
2023-04-04T22:04:16.417Z,22.13
2023-04-04T22:06:45.014Z,16.38
2023-04-04T22:09:12.206Z,15.57
2023-04-04T22:11:44.673Z,16.15
2023-04-04T22:14:17.840Z,16.27
2023-04-04T22:16:46.479Z,16.67
2023-04-04T22:19:13.623Z,17.02
2023-04-04T22:21:48.384Z,18.13
2023-04-04T22:24:18.743Z,18.65
2023-04-04T22:26:46.506Z,22.60
2023-04-04T22:29:13.974Z,25.33
2023-04-04T22:31:41.290Z,27.73
2023-04-04T22:34:10.476Z,30.95
2023-04-04T22:36:44.862Z,32.78
2023-04-04T22:39:16.429Z,23.15
2023-04-04T22:41:44.316Z,20.40
2023-04-04T22:44:11.988Z,25.65
2023-04-04T22:46:44.989Z,28.77
2023-04-04T22:49:13.689Z,24.40
2023-04-04T22:51:46.138Z,21.00
2023-04-04T22:54:17.012Z,23.40
2023-04-04T22:56:45.849Z,18.35
2023-04-04T22:59:13.174Z,22.00
2023-04-04T23:01:40.606Z,20.10
2023-04-04T23:04:08.329Z,25.45
2023-04-04T23:06:36.395Z,21.67
2023-04-04T23:09:04.401Z,22.58
2023-04-04T23:11:31.968Z,23.05
2023-04-04T23:14:00.866Z,23.65
2023-04-04T23:16:29.426Z,24.45
2023-04-04T23:18:57.297Z,22.10
2023-04-04T23:21:26.873Z,27.33
2023-04-04T23:23:59.968Z,42.75
2023-04-04T23:28:57.278Z,29.73
2023-04-04T23:31:26.165Z,27.92
2023-04-04T23:33:55.640Z,28.33
2023-04-04T23:36:22.998Z,27.27
2023-04-04T23:38:50.302Z,29.52
2023-04-04T23:41:18.504Z,33.65
2023-04-04T23:43:56.009Z,26.63
2023-04-04T23:46:24.236Z,27.00
2023-04-04T23:48:51.914Z,34.22
2023-04-04T23:51:19.573Z,34.20
2023-04-04T23:53:46.847Z,32.50
2023-04-04T23:56:14.437Z,31.60
2023-04-04T23:58:41.661Z,39.08
